KCBF/CBF METAR and TAF weather

Enter ICAO airport designator
Station Type Date Time Source
KCBF METAR 2019/10/18 11:55 UTC NOAA

KCBF 181155Z AUTO 16013KT 10SM CLR 10/09 A2967 RMK AO2


Station Type Date Time Source
KCBF Decoded METAR 2019/10/18 11:55 UTC NOAA

Council Bluffs, IA, United States (KCBF) 41-16N 095-46W
Oct 18, 2019 - 07:55 AM EDT / 2019.10.18 1155 UTC
Wind: from the SSE (160 degrees) at 15 MPH (13 KT):0
Visibility: 10 mile(s):0
Sky conditions: clear
Temperature: 50 F (10 C)
Dew Point: 48 F (9 C)
Relative Humidity: 93%
Pressure (altimeter): 29.67 in. Hg (1004 hPa)
ob: KCBF 181155Z AUTO 16013KT 10SM CLR 10/09 A2967 RMK AO2
cycle: 12

Station Type Date Time Source
KCBF TAF UTC NOAA

Error!

Example: see airport list